sensor_id;sensor_type;location;lat;lon;timestamp;P1;durP1;ratioP1;P2;durP2;ratioP2
59659;SDS011;45534;52.690;6.268;2023-12-04T00:00:37;42.83;;;25.15;;
59659;SDS011;45534;52.690;6.268;2023-12-04T00:03:02;33.33;;;20.17;;
59659;SDS011;45534;52.690;6.268;2023-12-04T00:05:28;34.40;;;20.20;;
59659;SDS011;45534;52.690;6.268;2023-12-04T00:07:54;35.28;;;19.15;;
59659;SDS011;45534;52.690;6.268;2023-12-04T00:10:20;31.52;;;20.92;;
59659;SDS011;45534;52.690;6.268;2023-12-04T00:12:46;38.85;;;22.15;;
59659;SDS011;45534;52.690;6.268;2023-12-04T00:15:11;39.78;;;25.23;;
59659;SDS011;45534;52.690;6.268;2023-12-04T00:17:37;36.53;;;22.73;;
59659;SDS011;45534;52.690;6.268;2023-12-04T00:20:07;30.33;;;22.17;;
59659;SDS011;45534;52.690;6.268;2023-12-04T00:22:34;36.67;;;19.38;;
59659;SDS011;45534;52.690;6.268;2023-12-04T00:25:01;41.60;;;24.80;;
59659;SDS011;45534;52.690;6.268;2023-12-04T00:27:28;40.53;;;25.27;;
59659;SDS011;45534;52.690;6.268;2023-12-04T00:29:54;35.50;;;23.55;;
59659;SDS011;45534;52.690;6.268;2023-12-04T00:32:20;42.58;;;25.35;;
59659;SDS011;45534;52.690;6.268;2023-12-04T00:34:45;32.70;;;21.30;;
59659;SDS011;45534;52.690;6.268;2023-12-04T00:37:11;33.10;;;21.98;;
59659;SDS011;45534;52.690;6.268;2023-12-04T00:39:37;32.83;;;19.83;;
59659;SDS011;45534;52.690;6.268;2023-12-04T00:42:03;35.55;;;22.88;;
59659;SDS011;45534;52.690;6.268;2023-12-04T00:44:29;43.45;;;26.40;;
59659;SDS011;45534;52.690;6.268;2023-12-04T00:46:54;38.50;;;24.48;;
59659;SDS011;45534;52.690;6.268;2023-12-04T00:49:20;37.25;;;25.60;;
59659;SDS011;45534;52.690;6.268;2023-12-04T00:51:46;36.40;;;21.73;;
59659;SDS011;45534;52.690;6.268;2023-12-04T00:54:11;39.78;;;22.02;;
59659;SDS011;45534;52.690;6.268;2023-12-04T00:56:37;36.50;;;22.52;;
59659;SDS011;45534;52.690;6.268;2023-12-04T00:59:09;41.55;;;25.13;;
59659;SDS011;45534;52.690;6.268;2023-12-04T01:01:36;34.97;;;20.25;;
59659;SDS011;45534;52.690;6.268;2023-12-04T01:04:02;37.67;;;24.08;;
59659;SDS011;45534;52.690;6.268;2023-12-04T01:06:28;30.70;;;19.20;;
59659;SDS011;45534;52.690;6.268;2023-12-04T01:08:54;37.80;;;25.15;;
59659;SDS011;45534;52.690;6.268;2023-12-04T01:11:20;34.90;;;20.83;;
59659;SDS011;45534;52.690;6.268;2023-12-04T01:13:47;34.67;;;21.23;;
59659;SDS011;45534;52.690;6.268;2023-12-04T01:16:14;44.25;;;23.75;;
59659;SDS011;45534;52.690;6.268;2023-12-04T01:18:40;41.85;;;26.25;;
59659;SDS011;45534;52.690;6.268;2023-12-04T01:21:06;42.67;;;27.88;;
59659;SDS011;45534;52.690;6.268;2023-12-04T01:23:34;41.03;;;28.10;;
59659;SDS011;45534;52.690;6.268;2023-12-04T01:26:00;38.17;;;22.73;;
59659;SDS011;45534;52.690;6.268;2023-12-04T01:28:26;38.67;;;23.05;;
59659;SDS011;45534;52.690;6.268;2023-12-04T01:30:52;43.70;;;26.67;;
59659;SDS011;45534;52.690;6.268;2023-12-04T01:33:18;40.65;;;22.92;;
59659;SDS011;45534;52.690;6.268;2023-12-04T01:35:43;39.47;;;21.30;;
59659;SDS011;45534;52.690;6.268;2023-12-04T01:38:12;39.70;;;23.80;;
59659;SDS011;45534;52.690;6.268;2023-12-04T01:40:38;37.55;;;21.17;;
59659;SDS011;45534;52.690;6.268;2023-12-04T01:43:03;37.95;;;23.27;;
59659;SDS011;45534;52.690;6.268;2023-12-04T01:45:30;38.63;;;23.23;;
59659;SDS011;45534;52.690;6.268;2023-12-04T01:47:56;34.72;;;23.10;;
59659;SDS011;45534;52.690;6.268;2023-12-04T01:50:22;40.90;;;23.52;;
59659;SDS011;45534;52.690;6.268;2023-12-04T01:52:49;25.58;;;16.85;;
59659;SDS011;45534;52.690;6.268;2023-12-04T01:55:16;27.48;;;20.42;;
59659;SDS011;45534;52.690;6.268;2023-12-04T01:57:42;32.40;;;20.23;;
59659;SDS011;45534;52.690;6.268;2023-12-04T02:00:08;31.33;;;21.85;;
59659;SDS011;45534;52.690;6.268;2023-12-04T02:02:40;40.33;;;23.50;;
59659;SDS011;45534;52.690;6.268;2023-12-04T02:05:07;35.17;;;20.85;;
59659;SDS011;45534;52.690;6.268;2023-12-04T02:07:34;37.63;;;21.80;;
59659;SDS011;45534;52.690;6.268;2023-12-04T02:10:02;34.22;;;21.70;;
59659;SDS011;45534;52.690;6.268;2023-12-04T02:12:28;34.55;;;22.88;;
59659;SDS011;45534;52.690;6.268;2023-12-04T02:14:54;29.75;;;20.55;;
59659;SDS011;45534;52.690;6.268;2023-12-04T02:17:20;46.08;;;27.73;;
59659;SDS011;45534;52.690;6.268;2023-12-04T02:19:47;31.48;;;18.90;;
59659;SDS011;45534;52.690;6.268;2023-12-04T02:22:13;31.02;;;19.00;;
59659;SDS011;45534;52.690;6.268;2023-12-04T02:24:39;33.92;;;21.52;;
59659;SDS011;45534;52.690;6.268;2023-12-04T02:27:16;33.53;;;17.77;;
59659;SDS011;45534;52.690;6.268;2023-12-04T02:29:47;35.10;;;20.35;;
59659;SDS011;45534;52.690;6.268;2023-12-04T02:32:17;36.58;;;22.75;;
59659;SDS011;45534;52.690;6.268;2023-12-04T02:34:44;35.95;;;21.05;;
59659;SDS011;45534;52.690;6.268;2023-12-04T02:37:12;33.63;;;21.90;;
59659;SDS011;45534;52.690;6.268;2023-12-04T02:39:40;32.20;;;18.23;;
59659;SDS011;45534;52.690;6.268;2023-12-04T02:42:06;40.92;;;23.02;;
59659;SDS011;45534;52.690;6.268;2023-12-04T02:44:32;33.03;;;18.38;;
59659;SDS011;45534;52.690;6.268;2023-12-04T02:46:58;34.28;;;21.38;;
59659;SDS011;45534;52.690;6.268;2023-12-04T02:49:23;34.60;;;21.85;;
59659;SDS011;45534;52.690;6.268;2023-12-04T02:51:49;37.20;;;20.33;;
59659;SDS011;45534;52.690;6.268;2023-12-04T02:54:15;28.23;;;17.27;;
59659;SDS011;45534;52.690;6.268;2023-12-04T02:56:40;29.45;;;18.98;;
59659;SDS011;45534;52.690;6.268;2023-12-04T02:59:06;34.33;;;21.45;;
59659;SDS011;45534;52.690;6.268;2023-12-04T03:01:32;32.95;;;20.73;;
59659;SDS011;45534;52.690;6.268;2023-12-04T03:03:57;33.83;;;18.65;;
59659;SDS011;45534;52.690;6.268;2023-12-04T03:06:23;37.58;;;20.52;;
59659;SDS011;45534;52.690;6.268;2023-12-04T03:08:49;38.83;;;23.35;;
59659;SDS011;45534;52.690;6.268;2023-12-04T03:11:14;37.10;;;20.73;;
59659;SDS011;45534;52.690;6.268;2023-12-04T03:13:40;33.17;;;17.30;;
59659;SDS011;45534;52.690;6.268;2023-12-04T03:16:06;33.17;;;23.52;;
59659;SDS011;45534;52.690;6.268;2023-12-04T03:18:39;35.25;;;22.45;;
59659;SDS011;45534;52.690;6.268;2023-12-04T03:21:06;30.90;;;19.83;;
59659;SDS011;45534;52.690;6.268;2023-12-04T03:23:32;30.17;;;16.10;;
59659;SDS011;45534;52.690;6.268;2023-12-04T03:25:57;28.77;;;16.13;;
59659;SDS011;45534;52.690;6.268;2023-12-04T03:28:23;33.85;;;21.20;;
59659;SDS011;45534;52.690;6.268;2023-12-04T03:30:49;29.00;;;18.50;;
59659;SDS011;45534;52.690;6.268;2023-12-04T03:33:14;39.50;;;23.55;;
59659;SDS011;45534;52.690;6.268;2023-12-04T03:35:40;36.15;;;24.92;;
59659;SDS011;45534;52.690;6.268;2023-12-04T03:38:06;25.73;;;18.58;;
59659;SDS011;45534;52.690;6.268;2023-12-04T03:40:31;29.77;;;17.08;;
59659;SDS011;45534;52.690;6.268;2023-12-04T03:42:57;28.92;;;18.77;;
59659;SDS011;45534;52.690;6.268;2023-12-04T03:45:23;28.42;;;16.33;;
59659;SDS011;45534;52.690;6.268;2023-12-04T03:47:48;36.25;;;19.35;;
59659;SDS011;45534;52.690;6.268;2023-12-04T03:50:14;25.85;;;15.57;;
59659;SDS011;45534;52.690;6.268;2023-12-04T03:52:40;29.38;;;19.15;;
59659;SDS011;45534;52.690;6.268;2023-12-04T03:55:07;31.08;;;18.90;;
59659;SDS011;45534;52.690;6.268;2023-12-04T03:57:33;34.50;;;18.23;;
59659;SDS011;45534;52.690;6.268;2023-12-04T03:59:59;32.63;;;19.20;;
59659;SDS011;45534;52.690;6.268;2023-12-04T04:02:25;31.45;;;19.95;;
59659;SDS011;45534;52.690;6.268;2023-12-04T04:04:50;28.05;;;18.80;;
59659;SDS011;45534;52.690;6.268;2023-12-04T04:07:16;29.00;;;19.70;;
59659;SDS011;45534;52.690;6.268;2023-12-04T04:09:42;31.33;;;19.25;;
59659;SDS011;45534;52.690;6.268;2023-12-04T04:12:08;34.17;;;21.23;;
59659;SDS011;45534;52.690;6.268;2023-12-04T04:14:34;29.75;;;18.15;;
59659;SDS011;45534;52.690;6.268;2023-12-04T04:17:00;29.92;;;16.08;;
59659;SDS011;45534;52.690;6.268;2023-12-04T04:19:25;21.80;;;14.43;;
59659;SDS011;45534;52.690;6.268;2023-12-04T04:21:51;34.60;;;20.73;;
59659;SDS011;45534;52.690;6.268;2023-12-04T04:24:17;29.55;;;17.02;;
59659;SDS011;45534;52.690;6.268;2023-12-04T04:26:42;31.27;;;17.08;;
59659;SDS011;45534;52.690;6.268;2023-12-04T04:29:08;27.25;;;17.58;;
59659;SDS011;45534;52.690;6.268;2023-12-04T04:31:34;23.75;;;14.38;;
59659;SDS011;45534;52.690;6.268;2023-12-04T04:34:00;28.55;;;16.75;;
59659;SDS011;45534;52.690;6.268;2023-12-04T04:36:26;23.50;;;14.73;;
59659;SDS011;45534;52.690;6.268;2023-12-04T04:38:51;29.25;;;15.98;;
59659;SDS011;45534;52.690;6.268;2023-12-04T04:41:17;29.98;;;13.23;;
59659;SDS011;45534;52.690;6.268;2023-12-04T04:43:43;27.63;;;18.27;;
59659;SDS011;45534;52.690;6.268;2023-12-04T04:46:09;23.98;;;13.85;;
59659;SDS011;45534;52.690;6.268;2023-12-04T04:48:35;28.38;;;15.82;;
59659;SDS011;45534;52.690;6.268;2023-12-04T04:51:00;28.33;;;16.38;;
59659;SDS011;45534;52.690;6.268;2023-12-04T04:53:26;22.85;;;15.90;;
59659;SDS011;45534;52.690;6.268;2023-12-04T04:55:52;22.40;;;10.25;;
59659;SDS011;45534;52.690;6.268;2023-12-04T04:58:17;24.35;;;15.63;;
59659;SDS011;45534;52.690;6.268;2023-12-04T05:00:43;26.63;;;15.07;;
59659;SDS011;45534;52.690;6.268;2023-12-04T05:03:10;23.35;;;15.80;;
59659;SDS011;45534;52.690;6.268;2023-12-04T05:05:35;28.63;;;17.15;;
59659;SDS011;45534;52.690;6.268;2023-12-04T05:08:01;30.40;;;15.20;;
59659;SDS011;45534;52.690;6.268;2023-12-04T05:10:27;27.67;;;16.20;;
59659;SDS011;45534;52.690;6.268;2023-12-04T05:12:52;23.02;;;14.95;;
59659;SDS011;45534;52.690;6.268;2023-12-04T05:15:18;20.65;;;13.02;;
59659;SDS011;45534;52.690;6.268;2023-12-04T05:17:44;29.30;;;16.42;;
59659;SDS011;45534;52.690;6.268;2023-12-04T05:20:09;28.88;;;17.75;;
59659;SDS011;45534;52.690;6.268;2023-12-04T05:22:35;23.50;;;15.00;;
59659;SDS011;45534;52.690;6.268;2023-12-04T05:25:01;30.70;;;17.15;;
59659;SDS011;45534;52.690;6.268;2023-12-04T05:27:27;26.67;;;14.15;;
59659;SDS011;45534;52.690;6.268;2023-12-04T05:29:53;24.98;;;14.50;;
59659;SDS011;45534;52.690;6.268;2023-12-04T05:32:19;23.25;;;14.15;;
59659;SDS011;45534;52.690;6.268;2023-12-04T05:34:45;32.80;;;19.42;;
59659;SDS011;45534;52.690;6.268;2023-12-04T05:37:11;35.50;;;15.35;;
59659;SDS011;45534;52.690;6.268;2023-12-04T05:39:37;22.40;;;13.35;;
59659;SDS011;45534;52.690;6.268;2023-12-04T05:42:02;26.60;;;15.30;;
59659;SDS011;45534;52.690;6.268;2023-12-04T05:44:28;26.15;;;16.70;;
59659;SDS011;45534;52.690;6.268;2023-12-04T05:46:54;22.50;;;14.05;;
59659;SDS011;45534;52.690;6.268;2023-12-04T05:49:20;25.50;;;14.57;;
59659;SDS011;45534;52.690;6.268;2023-12-04T05:51:45;21.60;;;12.85;;
59659;SDS011;45534;52.690;6.268;2023-12-04T05:54:11;24.52;;;14.63;;
59659;SDS011;45534;52.690;6.268;2023-12-04T05:56:37;25.27;;;17.17;;
59659;SDS011;45534;52.690;6.268;2023-12-04T05:59:02;28.25;;;17.73;;
59659;SDS011;45534;52.690;6.268;2023-12-04T06:01:29;22.85;;;16.40;;
59659;SDS011;45534;52.690;6.268;2023-12-04T06:03:55;17.00;;;11.75;;
59659;SDS011;45534;52.690;6.268;2023-12-04T06:06:20;23.48;;;14.82;;
59659;SDS011;45534;52.690;6.268;2023-12-04T06:08:46;18.25;;;10.88;;
59659;SDS011;45534;52.690;6.268;2023-12-04T06:11:11;22.30;;;15.18;;
59659;SDS011;45534;52.690;6.268;2023-12-04T06:13:38;24.00;;;14.68;;
59659;SDS011;45534;52.690;6.268;2023-12-04T06:16:03;22.92;;;14.40;;
59659;SDS011;45534;52.690;6.268;2023-12-04T06:18:29;23.05;;;17.05;;
59659;SDS011;45534;52.690;6.268;2023-12-04T06:20:55;19.92;;;12.25;;
59659;SDS011;45534;52.690;6.268;2023-12-04T06:23:21;24.38;;;15.82;;
59659;SDS011;45534;52.690;6.268;2023-12-04T06:25:47;17.30;;;14.18;;
59659;SDS011;45534;52.690;6.268;2023-12-04T06:28:12;20.58;;;12.13;;
59659;SDS011;45534;52.690;6.268;2023-12-04T06:30:38;26.17;;;13.30;;
59659;SDS011;45534;52.690;6.268;2023-12-04T06:33:04;20.75;;;14.43;;
59659;SDS011;45534;52.690;6.268;2023-12-04T06:35:30;18.52;;;11.30;;
59659;SDS011;45534;52.690;6.268;2023-12-04T06:37:56;20.38;;;13.68;;
59659;SDS011;45534;52.690;6.268;2023-12-04T06:40:27;17.93;;;12.53;;
59659;SDS011;45534;52.690;6.268;2023-12-04T06:42:53;17.50;;;12.05;;
59659;SDS011;45534;52.690;6.268;2023-12-04T06:45:19;14.48;;;10.27;;
59659;SDS011;45534;52.690;6.268;2023-12-04T06:47:45;19.92;;;13.50;;
59659;SDS011;45534;52.690;6.268;2023-12-04T06:50:14;19.42;;;11.48;;
59659;SDS011;45534;52.690;6.268;2023-12-04T06:52:40;17.45;;;11.05;;
59659;SDS011;45534;52.690;6.268;2023-12-04T06:55:06;22.67;;;13.07;;
59659;SDS011;45534;52.690;6.268;2023-12-04T06:57:32;12.48;;;8.93;;
59659;SDS011;45534;52.690;6.268;2023-12-04T06:59:57;15.02;;;9.85;;
59659;SDS011;45534;52.690;6.268;2023-12-04T07:02:23;13.80;;;9.85;;
59659;SDS011;45534;52.690;6.268;2023-12-04T07:04:49;18.13;;;12.27;;
59659;SDS011;45534;52.690;6.268;2023-12-04T07:07:14;15.85;;;9.45;;
59659;SDS011;45534;52.690;6.268;2023-12-04T07:09:40;17.90;;;12.35;;
59659;SDS011;45534;52.690;6.268;2023-12-04T07:12:06;19.35;;;12.15;;
59659;SDS011;45534;52.690;6.268;2023-12-04T07:14:32;15.98;;;8.80;;
59659;SDS011;45534;52.690;6.268;2023-12-04T07:16:58;16.33;;;10.43;;
59659;SDS011;45534;52.690;6.268;2023-12-04T07:19:25;17.27;;;11.48;;
59659;SDS011;45534;52.690;6.268;2023-12-04T07:21:52;15.13;;;11.55;;
59659;SDS011;45534;52.690;6.268;2023-12-04T07:24:18;16.40;;;9.32;;
59659;SDS011;45534;52.690;6.268;2023-12-04T07:26:44;18.30;;;10.85;;
59659;SDS011;45534;52.690;6.268;2023-12-04T07:29:09;14.00;;;8.93;;
59659;SDS011;45534;52.690;6.268;2023-12-04T07:31:35;12.77;;;10.07;;
59659;SDS011;45534;52.690;6.268;2023-12-04T07:34:02;12.98;;;10.13;;
59659;SDS011;45534;52.690;6.268;2023-12-04T07:36:28;16.25;;;8.90;;
59659;SDS011;45534;52.690;6.268;2023-12-04T07:38:54;18.08;;;8.30;;
59659;SDS011;45534;52.690;6.268;2023-12-04T07:41:20;15.02;;;9.73;;
59659;SDS011;45534;52.690;6.268;2023-12-04T07:43:46;16.00;;;8.98;;
59659;SDS011;45534;52.690;6.268;2023-12-04T07:46:12;15.43;;;9.77;;
59659;SDS011;45534;52.690;6.268;2023-12-04T07:48:39;14.45;;;8.63;;
59659;SDS011;45534;52.690;6.268;2023-12-04T07:51:05;19.30;;;11.18;;
59659;SDS011;45534;52.690;6.268;2023-12-04T07:53:32;15.93;;;10.63;;
59659;SDS011;45534;52.690;6.268;2023-12-04T07:56:00;17.75;;;10.35;;
59659;SDS011;45534;52.690;6.268;2023-12-04T07:58:28;14.05;;;8.38;;
59659;SDS011;45534;52.690;6.268;2023-12-04T08:00:53;13.57;;;6.70;;
59659;SDS011;45534;52.690;6.268;2023-12-04T08:03:19;15.02;;;8.75;;
59659;SDS011;45534;52.690;6.268;2023-12-04T08:05:45;15.40;;;8.77;;
59659;SDS011;45534;52.690;6.268;2023-12-04T08:08:10;14.73;;;8.45;;
59659;SDS011;45534;52.690;6.268;2023-12-04T08:10:36;18.05;;;10.23;;
59659;SDS011;45534;52.690;6.268;2023-12-04T08:13:02;19.30;;;7.85;;
59659;SDS011;45534;52.690;6.268;2023-12-04T08:15:28;17.08;;;10.88;;
59659;SDS011;45534;52.690;6.268;2023-12-04T08:17:53;12.40;;;7.78;;
59659;SDS011;45534;52.690;6.268;2023-12-04T08:20:20;9.70;;;6.13;;
59659;SDS011;45534;52.690;6.268;2023-12-04T08:22:47;12.98;;;7.43;;
59659;SDS011;45534;52.690;6.268;2023-12-04T08:25:13;13.27;;;7.63;;
59659;SDS011;45534;52.690;6.268;2023-12-04T08:27:39;9.70;;;6.68;;
59659;SDS011;45534;52.690;6.268;2023-12-04T08:30:05;13.77;;;7.65;;
59659;SDS011;45534;52.690;6.268;2023-12-04T08:32:31;16.25;;;9.98;;
59659;SDS011;45534;52.690;6.268;2023-12-04T08:34:57;13.15;;;7.28;;
59659;SDS011;45534;52.690;6.268;2023-12-04T08:37:22;12.65;;;7.75;;
59659;SDS011;45534;52.690;6.268;2023-12-04T08:39:48;12.13;;;8.32;;
59659;SDS011;45534;52.690;6.268;2023-12-04T08:42:14;14.98;;;7.45;;
59659;SDS011;45534;52.690;6.268;2023-12-04T08:44:39;13.73;;;10.05;;
59659;SDS011;45534;52.690;6.268;2023-12-04T08:47:05;16.85;;;9.75;;
59659;SDS011;45534;52.690;6.268;2023-12-04T08:49:31;12.73;;;7.05;;
59659;SDS011;45534;52.690;6.268;2023-12-04T08:51:57;22.10;;;11.05;;
59659;SDS011;45534;52.690;6.268;2023-12-04T08:54:24;13.43;;;7.78;;
59659;SDS011;45534;52.690;6.268;2023-12-04T08:56:49;10.70;;;6.28;;
59659;SDS011;45534;52.690;6.268;2023-12-04T08:59:15;14.05;;;10.63;;
59659;SDS011;45534;52.690;6.268;2023-12-04T09:01:42;12.18;;;8.05;;
59659;SDS011;45534;52.690;6.268;2023-12-04T09:04:08;12.82;;;9.00;;
59659;SDS011;45534;52.690;6.268;2023-12-04T09:06:34;13.43;;;8.40;;
59659;SDS011;45534;52.690;6.268;2023-12-04T09:09:00;11.23;;;6.80;;
59659;SDS011;45534;52.690;6.268;2023-12-04T09:11:27;15.13;;;8.52;;
59659;SDS011;45534;52.690;6.268;2023-12-04T09:13:53;17.83;;;7.47;;
59659;SDS011;45534;52.690;6.268;2023-12-04T09:16:19;14.65;;;9.35;;
59659;SDS011;45534;52.690;6.268;2023-12-04T09:18:45;12.85;;;8.40;;
59659;SDS011;45534;52.690;6.268;2023-12-04T09:21:11;11.82;;;6.75;;
59659;SDS011;45534;52.690;6.268;2023-12-04T09:23:37;13.32;;;7.70;;
59659;SDS011;45534;52.690;6.268;2023-12-04T09:26:03;14.45;;;9.02;;
59659;SDS011;45534;52.690;6.268;2023-12-04T09:28:29;11.63;;;8.15;;
59659;SDS011;45534;52.690;6.268;2023-12-04T09:30:55;11.68;;;6.30;;
59659;SDS011;45534;52.690;6.268;2023-12-04T09:33:20;11.55;;;6.57;;
59659;SDS011;45534;52.690;6.268;2023-12-04T09:35:46;11.55;;;7.95;;
59659;SDS011;45534;52.690;6.268;2023-12-04T09:38:12;11.23;;;7.20;;
59659;SDS011;45534;52.690;6.268;2023-12-04T09:40:37;13.48;;;7.82;;
59659;SDS011;45534;52.690;6.268;2023-12-04T09:43:04;10.48;;;7.05;;
59659;SDS011;45534;52.690;6.268;2023-12-04T09:45:31;10.20;;;7.75;;
59659;SDS011;45534;52.690;6.268;2023-12-04T09:47:58;12.30;;;7.20;;
59659;SDS011;45534;52.690;6.268;2023-12-04T09:50:25;12.73;;;6.47;;
59659;SDS011;45534;52.690;6.268;2023-12-04T09:52:51;12.38;;;8.00;;
59659;SDS011;45534;52.690;6.268;2023-12-04T09:55:18;10.93;;;5.65;;
59659;SDS011;45534;52.690;6.268;2023-12-04T09:57:45;15.30;;;7.55;;
59659;SDS011;45534;52.690;6.268;2023-12-04T10:00:14;13.02;;;7.22;;
59659;SDS011;45534;52.690;6.268;2023-12-04T10:02:40;11.45;;;8.32;;
59659;SDS011;45534;52.690;6.268;2023-12-04T10:05:07;8.85;;;6.30;;
59659;SDS011;45534;52.690;6.268;2023-12-04T10:07:33;10.98;;;7.43;;
59659;SDS011;45534;52.690;6.268;2023-12-04T10:09:59;9.43;;;6.00;;
59659;SDS011;45534;52.690;6.268;2023-12-04T10:12:25;9.43;;;5.20;;
59659;SDS011;45534;52.690;6.268;2023-12-04T10:15:09;15.00;;;7.82;;
59659;SDS011;45534;52.690;6.268;2023-12-04T10:17:37;13.18;;;7.07;;
59659;SDS011;45534;52.690;6.268;2023-12-04T10:20:05;9.90;;;6.72;;
59659;SDS011;45534;52.690;6.268;2023-12-04T10:22:36;15.75;;;8.45;;
59659;SDS011;45534;52.690;6.268;2023-12-04T10:25:15;11.70;;;7.28;;
59659;SDS011;45534;52.690;6.268;2023-12-04T10:27:41;8.73;;;6.05;;
59659;SDS011;45534;52.690;6.268;2023-12-04T10:30:08;12.75;;;7.18;;
59659;SDS011;45534;52.690;6.268;2023-12-04T10:32:40;10.95;;;6.60;;
59659;SDS011;45534;52.690;6.268;2023-12-04T10:35:06;9.98;;;6.13;;
59659;SDS011;45534;52.690;6.268;2023-12-04T10:37:37;16.67;;;6.13;;
59659;SDS011;45534;52.690;6.268;2023-12-04T10:40:03;12.45;;;5.78;;
59659;SDS011;45534;52.690;6.268;2023-12-04T10:42:33;12.20;;;7.97;;
59659;SDS011;45534;52.690;6.268;2023-12-04T10:44:59;10.73;;;6.88;;
59659;SDS011;45534;52.690;6.268;2023-12-04T10:47:26;14.30;;;9.60;;
59659;SDS011;45534;52.690;6.268;2023-12-04T10:49:53;10.95;;;6.65;;
59659;SDS011;45534;52.690;6.268;2023-12-04T10:52:20;10.60;;;6.45;;
59659;SDS011;45534;52.690;6.268;2023-12-04T10:54:46;8.50;;;5.43;;
59659;SDS011;45534;52.690;6.268;2023-12-04T10:57:13;9.68;;;6.43;;
59659;SDS011;45534;52.690;6.268;2023-12-04T10:59:51;13.25;;;7.40;;
59659;SDS011;45534;52.690;6.268;2023-12-04T11:02:21;10.75;;;6.88;;
59659;SDS011;45534;52.690;6.268;2023-12-04T11:04:53;9.18;;;6.18;;
59659;SDS011;45534;52.690;6.268;2023-12-04T11:07:22;11.02;;;6.20;;
59659;SDS011;45534;52.690;6.268;2023-12-04T11:09:52;10.07;;;5.35;;
59659;SDS011;45534;52.690;6.268;2023-12-04T11:12:19;14.38;;;8.93;;
59659;SDS011;45534;52.690;6.268;2023-12-04T11:14:52;12.02;;;6.45;;
59659;SDS011;45534;52.690;6.268;2023-12-04T11:17:21;12.67;;;7.70;;
59659;SDS011;45534;52.690;6.268;2023-12-04T11:19:58;13.98;;;8.68;;
59659;SDS011;45534;52.690;6.268;2023-12-04T11:22:27;12.25;;;5.85;;
59659;SDS011;45534;52.690;6.268;2023-12-04T11:24:53;11.25;;;6.78;;
59659;SDS011;45534;52.690;6.268;2023-12-04T11:27:20;10.73;;;5.82;;
59659;SDS011;45534;52.690;6.268;2023-12-04T11:29:46;11.35;;;7.05;;
59659;SDS011;45534;52.690;6.268;2023-12-04T11:32:16;10.90;;;6.55;;
59659;SDS011;45534;52.690;6.268;2023-12-04T11:34:54;11.82;;;8.02;;
59659;SDS011;45534;52.690;6.268;2023-12-04T11:37:21;13.40;;;8.68;;
59659;SDS011;45534;52.690;6.268;2023-12-04T11:39:49;9.23;;;6.57;;
59659;SDS011;45534;52.690;6.268;2023-12-04T11:42:19;9.63;;;6.25;;
59659;SDS011;45534;52.690;6.268;2023-12-04T11:44:49;13.02;;;6.50;;
59659;SDS011;45534;52.690;6.268;2023-12-04T11:49:46;10.13;;;6.63;;
59659;SDS011;45534;52.690;6.268;2023-12-04T11:52:12;9.68;;;7.18;;
59659;SDS011;45534;52.690;6.268;2023-12-04T11:57:25;12.02;;;7.85;;
59659;SDS011;45534;52.690;6.268;2023-12-04T12:00:39;10.00;;;6.60;;
59659;SDS011;45534;52.690;6.268;2023-12-04T12:02:49;12.77;;;6.88;;
59659;SDS011;45534;52.690;6.268;2023-12-04T12:05:27;12.93;;;7.93;;
59659;SDS011;45534;52.690;6.268;2023-12-04T12:07:54;12.38;;;6.35;;
59659;SDS011;45534;52.690;6.268;2023-12-04T12:10:21;11.38;;;7.38;;
59659;SDS011;45534;52.690;6.268;2023-12-04T12:12:47;10.38;;;6.45;;
59659;SDS011;45534;52.690;6.268;2023-12-04T12:15:13;11.98;;;6.88;;
59659;SDS011;45534;52.690;6.268;2023-12-04T12:17:39;12.43;;;8.07;;
59659;SDS011;45534;52.690;6.268;2023-12-04T12:22:36;9.15;;;5.30;;
59659;SDS011;45534;52.690;6.268;2023-12-04T12:25:06;11.00;;;8.07;;
59659;SDS011;45534;52.690;6.268;2023-12-04T12:27:33;12.10;;;7.88;;
59659;SDS011;45534;52.690;6.268;2023-12-04T12:29:59;10.35;;;6.22;;
59659;SDS011;45534;52.690;6.268;2023-12-04T12:32:30;10.63;;;6.93;;
59659;SDS011;45534;52.690;6.268;2023-12-04T12:34:56;11.65;;;6.10;;
59659;SDS011;45534;52.690;6.268;2023-12-04T12:37:22;9.52;;;6.53;;
59659;SDS011;45534;52.690;6.268;2023-12-04T12:39:48;10.20;;;5.70;;
59659;SDS011;45534;52.690;6.268;2023-12-04T12:42:47;8.05;;;5.38;;
59659;SDS011;45534;52.690;6.268;2023-12-04T12:45:07;8.18;;;4.45;;
59659;SDS011;45534;52.690;6.268;2023-12-04T12:47:35;8.48;;;6.00;;
59659;SDS011;45534;52.690;6.268;2023-12-04T12:50:01;9.93;;;5.88;;
59659;SDS011;45534;52.690;6.268;2023-12-04T12:52:27;13.25;;;5.95;;
59659;SDS011;45534;52.690;6.268;2023-12-04T12:54:54;7.53;;;5.32;;
59659;SDS011;45534;52.690;6.268;2023-12-04T12:57:20;12.32;;;7.13;;
59659;SDS011;45534;52.690;6.268;2023-12-04T12:59:45;10.15;;;5.97;;
59659;SDS011;45534;52.690;6.268;2023-12-04T13:02:11;8.50;;;6.35;;
59659;SDS011;45534;52.690;6.268;2023-12-04T13:04:37;10.68;;;6.13;;
59659;SDS011;45534;52.690;6.268;2023-12-04T13:07:05;14.70;;;6.35;;
59659;SDS011;45534;52.690;6.268;2023-12-04T13:09:31;9.48;;;5.72;;
59659;SDS011;45534;52.690;6.268;2023-12-04T13:12:01;9.48;;;5.63;;
59659;SDS011;45534;52.690;6.268;2023-12-04T13:14:27;8.77;;;5.43;;
59659;SDS011;45534;52.690;6.268;2023-12-04T13:16:53;10.82;;;7.35;;
59659;SDS011;45534;52.690;6.268;2023-12-04T13:19:22;9.77;;;5.00;;
59659;SDS011;45534;52.690;6.268;2023-12-04T13:21:48;8.70;;;6.07;;
59659;SDS011;45534;52.690;6.268;2023-12-04T13:24:15;9.13;;;5.57;;
59659;SDS011;45534;52.690;6.268;2023-12-04T13:26:41;12.25;;;5.57;;
59659;SDS011;45534;52.690;6.268;2023-12-04T13:29:06;7.72;;;6.20;;
59659;SDS011;45534;52.690;6.268;2023-12-04T13:31:33;8.10;;;4.82;;
59659;SDS011;45534;52.690;6.268;2023-12-04T13:33:59;9.13;;;6.32;;
59659;SDS011;45534;52.690;6.268;2023-12-04T13:36:25;7.72;;;5.22;;
59659;SDS011;45534;52.690;6.268;2023-12-04T13:38:52;16.50;;;6.93;;
59659;SDS011;45534;52.690;6.268;2023-12-04T13:41:18;9.38;;;6.03;;
59659;SDS011;45534;52.690;6.268;2023-12-04T13:44:04;8.82;;;4.75;;
59659;SDS011;45534;52.690;6.268;2023-12-04T13:46:30;12.00;;;6.78;;
59659;SDS011;45534;52.690;6.268;2023-12-04T13:48:57;13.68;;;6.95;;
59659;SDS011;45534;52.690;6.268;2023-12-04T13:51:24;10.18;;;6.80;;
59659;SDS011;45534;52.690;6.268;2023-12-04T13:53:50;11.27;;;5.85;;
59659;SDS011;45534;52.690;6.268;2023-12-04T13:56:21;8.38;;;5.85;;
59659;SDS011;45534;52.690;6.268;2023-12-04T13:59:06;12.10;;;5.07;;
59659;SDS011;45534;52.690;6.268;2023-12-04T14:01:32;11.25;;;7.78;;
59659;SDS011;45534;52.690;6.268;2023-12-04T14:03:59;9.40;;;5.10;;
59659;SDS011;45534;52.690;6.268;2023-12-04T14:06:30;6.95;;;5.80;;
59659;SDS011;45534;52.690;6.268;2023-12-04T14:08:56;9.80;;;6.80;;
59659;SDS011;45534;52.690;6.268;2023-12-04T14:11:24;15.38;;;8.38;;
59659;SDS011;45534;52.690;6.268;2023-12-04T14:13:49;8.60;;;5.43;;
59659;SDS011;45534;52.690;6.268;2023-12-04T14:16:16;8.02;;;5.80;;
59659;SDS011;45534;52.690;6.268;2023-12-04T14:18:42;13.10;;;7.53;;
59659;SDS011;45534;52.690;6.268;2023-12-04T14:21:08;6.68;;;4.65;;
59659;SDS011;45534;52.690;6.268;2023-12-04T14:23:34;8.75;;;6.10;;
59659;SDS011;45534;52.690;6.268;2023-12-04T14:26:00;11.27;;;8.35;;
59659;SDS011;45534;52.690;6.268;2023-12-04T14:28:26;10.18;;;6.07;;
59659;SDS011;45534;52.690;6.268;2023-12-04T14:30:55;10.57;;;6.30;;
59659;SDS011;45534;52.690;6.268;2023-12-04T14:33:21;10.70;;;7.68;;